createdAt,value
2022-12-18T00:01:41.592Z,16.85
2022-12-18T00:04:20.021Z,17.42
2022-12-18T00:06:47.513Z,18.55
2022-12-18T00:09:15.510Z,19.58
2022-12-18T00:11:42.720Z,13.80
2022-12-18T00:14:11.873Z,16.38
2022-12-18T00:16:39.096Z,18.42
2022-12-18T00:19:06.602Z,16.85
2022-12-18T00:21:36.231Z,16.55
2022-12-18T00:24:04.335Z,16.42
2022-12-18T00:26:38.129Z,17.15
2022-12-18T00:29:12.385Z,15.63
2022-12-18T00:31:39.340Z,17.48
2022-12-18T00:34:07.444Z,12.80
2022-12-18T00:36:37.757Z,17.08
2022-12-18T00:39:07.939Z,17.75
2022-12-18T00:41:53.468Z,15.57
2022-12-18T00:44:21.003Z,16.52
2022-12-18T00:46:48.963Z,14.25
2022-12-18T00:49:20.703Z,16.83
2022-12-18T00:54:18.636Z,17.00
2022-12-18T00:56:49.077Z,15.20
2022-12-18T00:59:17.809Z,17.37
2022-12-18T01:01:45.397Z,22.50
2022-12-18T01:04:12.722Z,18.98
2022-12-18T01:06:39.545Z,13.85
2022-12-18T01:09:10.108Z,15.52
2022-12-18T01:11:41.384Z,16.33
2022-12-18T01:14:08.123Z,15.57
2022-12-18T01:16:35.055Z,14.98
2022-12-18T01:19:01.708Z,13.55
2022-12-18T01:21:28.494Z,14.00
2022-12-18T01:23:57.375Z,16.60
2022-12-18T01:26:25.321Z,16.70
2022-12-18T01:28:51.934Z,17.60
2022-12-18T01:31:20.447Z,17.13
2022-12-18T01:33:47.294Z,14.63
2022-12-18T01:36:23.413Z,16.70
2022-12-18T01:38:50.544Z,14.88
2022-12-18T01:41:19.827Z,14.90
2022-12-18T01:43:52.835Z,14.85
2022-12-18T01:46:21.796Z,18.48
2022-12-18T01:48:55.012Z,15.90
2022-12-18T01:51:25.498Z,14.55
2022-12-18T01:53:52.701Z,19.63
2022-12-18T01:56:23.679Z,20.55
2022-12-18T01:59:03.351Z,16.33
2022-12-18T02:01:55.929Z,17.27
2022-12-18T02:04:27.887Z,19.17
2022-12-18T02:07:12.889Z,21.35
2022-12-18T02:10:15.123Z,16.63
2022-12-18T02:12:56.073Z,17.98
2022-12-18T02:15:25.194Z,18.30
2022-12-18T02:18:10.107Z,17.63
2022-12-18T02:20:52.523Z,17.10
2022-12-18T02:23:31.548Z,15.63
2022-12-18T02:26:10.238Z,17.63
2022-12-18T02:28:47.591Z,19.02
2022-12-18T02:31:21.156Z,17.42
2022-12-18T02:33:54.597Z,16.13
2022-12-18T02:36:26.978Z,20.55
2022-12-18T02:38:56.021Z,18.08
2022-12-18T02:41:24.850Z,18.42
2022-12-18T02:43:58.099Z,16.52
2022-12-18T02:46:37.738Z,17.33
2022-12-18T02:49:27.169Z,16.55
2022-12-18T02:52:00.868Z,16.50
2022-12-18T02:54:48.543Z,19.65
2022-12-18T03:00:35.820Z,15.48
2022-12-18T03:03:21.541Z,17.35
2022-12-18T03:06:26.723Z,17.00
2022-12-18T03:09:07.220Z,16.98
2022-12-18T03:11:57.123Z,17.88
2022-12-18T03:14:26.952Z,17.02
2022-12-18T03:16:59.010Z,19.00
2022-12-18T03:21:59.781Z,14.45
2022-12-18T03:24:30.164Z,14.23
2022-12-18T03:27:03.576Z,17.83
2022-12-18T03:29:47.872Z,17.67
2022-12-18T03:32:27.678Z,15.93
2022-12-18T03:34:58.928Z,17.92
2022-12-18T03:37:31.315Z,18.55
2022-12-18T03:39:58.287Z,16.25
2022-12-18T03:42:42.178Z,16.05
2022-12-18T03:45:15.530Z,16.27
2022-12-18T03:48:13.006Z,16.55
2022-12-18T03:50:54.962Z,20.38
2022-12-18T03:53:42.433Z,15.43
2022-12-18T03:56:13.391Z,14.02
2022-12-18T03:58:42.462Z,16.48
2022-12-18T04:01:14.529Z,15.98
2022-12-18T04:06:12.031Z,15.93
2022-12-18T04:08:40.985Z,17.83
2022-12-18T04:11:07.643Z,16.05
2022-12-18T04:13:40.850Z,17.95
2022-12-18T04:16:08.161Z,18.48
2022-12-18T04:18:35.256Z,17.67
2022-12-18T04:21:02.310Z,16.73
2022-12-18T04:23:29.383Z,18.02
2022-12-18T04:25:56.314Z,14.13
2022-12-18T04:28:24.147Z,15.93
2022-12-18T04:30:51.016Z,15.65
2022-12-18T04:33:17.807Z,15.32
2022-12-18T04:35:44.904Z,16.92
2022-12-18T04:38:11.564Z,15.27
2022-12-18T04:40:39.361Z,17.08
2022-12-18T04:43:07.898Z,19.15
2022-12-18T04:45:34.994Z,17.02
2022-12-18T04:48:05.931Z,16.20
2022-12-18T04:50:34.151Z,15.75
2022-12-18T04:53:01.160Z,16.10
2022-12-18T04:55:28.769Z,16.67
2022-12-18T04:57:58.686Z,17.67
2022-12-18T05:00:26.044Z,16.08
2022-12-18T05:02:53.140Z,13.70
2022-12-18T05:05:19.871Z,14.60
2022-12-18T05:07:47.287Z,20.65
2022-12-18T05:10:15.510Z,18.02
2022-12-18T05:13:01.604Z,17.73
2022-12-18T05:15:38.167Z,18.55
2022-12-18T05:18:05.223Z,14.10
2022-12-18T05:20:32.632Z,15.07
2022-12-18T05:23:02.327Z,12.80
2022-12-18T05:25:30.396Z,17.10
2022-12-18T05:27:57.589Z,17.08
2022-12-18T05:30:24.782Z,14.07
2022-12-18T05:32:51.537Z,15.95
2022-12-18T05:35:18.465Z,16.83
2022-12-18T05:37:52.269Z,14.05
2022-12-18T05:40:19.135Z,15.10
2022-12-18T05:42:47.798Z,14.88
2022-12-18T05:45:16.420Z,14.85
2022-12-18T05:47:43.168Z,14.23
2022-12-18T05:50:10.284Z,15.80
2022-12-18T05:52:37.198Z,14.70
2022-12-18T05:55:06.719Z,15.45
2022-12-18T05:57:36.644Z,15.07
2022-12-18T06:00:06.975Z,14.05
2022-12-18T06:02:33.836Z,17.77
2022-12-18T06:05:01.428Z,14.15
2022-12-18T06:07:28.132Z,15.15
2022-12-18T06:09:54.855Z,14.00
2022-12-18T06:12:22.207Z,13.52
2022-12-18T06:14:49.259Z,18.33
2022-12-18T06:17:15.936Z,15.20
2022-12-18T06:19:45.384Z,16.80
2022-12-18T06:22:12.043Z,15.95
2022-12-18T06:24:38.872Z,15.07
2022-12-18T06:27:05.470Z,14.90
2022-12-18T06:29:32.129Z,14.20
2022-12-18T06:31:58.899Z,17.85
2022-12-18T06:34:25.636Z,16.45
2022-12-18T06:36:52.273Z,22.23
2022-12-18T06:39:19.076Z,15.45
2022-12-18T06:41:48.693Z,18.33
2022-12-18T06:44:15.514Z,13.98
2022-12-18T06:46:45.396Z,15.25
2022-12-18T06:49:12.458Z,18.65
2022-12-18T06:51:42.746Z,15.25
2022-12-18T06:54:09.842Z,14.75
2022-12-18T06:56:41.405Z,15.73
2022-12-18T06:59:10.182Z,12.95
2022-12-18T07:01:37.021Z,16.50
2022-12-18T07:04:05.042Z,15.00
2022-12-18T07:06:34.546Z,14.07
2022-12-18T07:09:02.932Z,16.20
2022-12-18T07:11:29.674Z,16.58
2022-12-18T07:13:56.460Z,16.67
2022-12-18T07:16:29.500Z,17.02
2022-12-18T07:18:57.481Z,15.27
2022-12-18T07:21:36.965Z,17.77
2022-12-18T07:24:11.078Z,14.98
2022-12-18T07:26:37.992Z,18.38
2022-12-18T07:29:06.999Z,14.35
2022-12-18T07:31:33.750Z,15.02
2022-12-18T07:34:03.330Z,15.23
2022-12-18T07:36:34.231Z,16.55
2022-12-18T07:39:05.619Z,16.98
2022-12-18T07:41:32.604Z,15.52
2022-12-18T07:43:59.384Z,16.77
2022-12-18T07:46:26.186Z,13.38
2022-12-18T07:48:53.032Z,17.75
2022-12-18T07:51:22.830Z,24.52
2022-12-18T07:53:52.243Z,18.20
2022-12-18T07:56:29.081Z,17.80
2022-12-18T07:58:57.863Z,18.73
2022-12-18T08:01:24.812Z,17.58
2022-12-18T08:03:51.661Z,20.58
2022-12-18T08:06:24.523Z,17.17
2022-12-18T08:09:01.123Z,17.75
2022-12-18T08:11:29.773Z,16.85
2022-12-18T08:14:03.164Z,20.35
2022-12-18T08:16:30.132Z,18.02
2022-12-18T08:18:58.252Z,17.77
2022-12-18T08:21:27.791Z,18.70
2022-12-18T08:23:56.380Z,19.48
2022-12-18T08:26:24.451Z,17.90
2022-12-18T08:28:51.905Z,48.30
2022-12-18T08:31:22.157Z,21.92
2022-12-18T08:33:52.390Z,17.65
2022-12-18T08:36:20.790Z,23.10
2022-12-18T08:38:50.528Z,16.48
2022-12-18T08:41:21.582Z,16.48
2022-12-18T08:44:10.445Z,16.52
2022-12-18T08:46:43.948Z,15.80
2022-12-18T08:49:15.746Z,18.17
2022-12-18T08:51:42.508Z,16.20
2022-12-18T08:54:13.588Z,18.20
2022-12-18T08:56:40.573Z,17.42
2022-12-18T08:59:17.587Z,14.75
2022-12-18T09:01:56.747Z,18.02
2022-12-18T09:04:28.239Z,17.98
2022-12-18T09:07:00.681Z,16.45
2022-12-18T09:12:04.506Z,17.10
2022-12-18T09:14:31.173Z,17.48
2022-12-18T09:16:58.161Z,16.83
2022-12-18T09:19:28.859Z,14.63
2022-12-18T09:22:00.581Z,16.77
2022-12-18T09:27:01.017Z,15.98
2022-12-18T09:29:27.694Z,15.85
2022-12-18T09:31:54.666Z,17.60
2022-12-18T09:34:24.883Z,17.00
2022-12-18T09:36:52.010Z,19.90
2022-12-18T09:39:21.844Z,20.33
2022-12-18T09:44:47.446Z,16.85
2022-12-18T09:47:29.730Z,17.33
2022-12-18T09:50:03.886Z,14.95
2022-12-18T09:52:53.522Z,15.95
2022-12-18T09:55:42.489Z,16.13
2022-12-18T09:58:33.329Z,16.67
2022-12-18T10:01:38.927Z,16.35
2022-12-18T10:04:10.376Z,19.40
2022-12-18T10:06:46.694Z,19.15
2022-12-18T10:09:29.565Z,15.05
2022-12-18T10:12:19.208Z,20.00
2022-12-18T10:15:09.384Z,16.48
2022-12-18T10:17:47.008Z,18.50
2022-12-18T10:20:55.729Z,16.90
2022-12-18T10:23:38.097Z,15.75
2022-12-18T10:26:13.750Z,14.88
2022-12-18T10:28:45.250Z,17.20
2022-12-18T10:31:21.540Z,18.67
2022-12-18T10:33:51.915Z,17.58
2022-12-18T10:36:20.209Z,16.70
2022-12-18T10:38:48.791Z,19.35
2022-12-18T10:41:29.754Z,17.60
2022-12-18T10:44:21.374Z,21.60
2022-12-18T10:46:50.924Z,18.83
2022-12-18T10:49:35.901Z,16.75
2022-12-18T10:52:18.574Z,16.92
2022-12-18T10:55:05.265Z,18.13
2022-12-18T10:57:44.585Z,14.27
2022-12-18T11:00:31.770Z,22.73
2022-12-18T11:02:59.168Z,17.80
2022-12-18T11:05:32.853Z,19.50
2022-12-18T11:08:01.175Z,16.50
2022-12-18T11:10:40.338Z,19.50
2022-12-18T11:13:12.883Z,17.63
2022-12-18T11:15:45.617Z,17.98
2022-12-18T11:18:18.937Z,16.67
2022-12-18T11:20:58.184Z,18.10
2022-12-18T11:23:28.174Z,20.30
2022-12-18T11:26:04.314Z,18.20
2022-12-18T11:28:45.008Z,17.75
2022-12-18T11:31:27.468Z,20.75
2022-12-18T11:36:50.354Z,22.80
2022-12-18T11:39:41.492Z,19.70
2022-12-18T11:42:23.933Z,16.63
2022-12-18T11:45:09.696Z,18.13
2022-12-18T11:48:13.454Z,18.38
2022-12-18T11:50:55.740Z,18.02
2022-12-18T11:53:25.468Z,19.80
2022-12-18T11:56:24.058Z,18.27
2022-12-18T11:58:54.711Z,15.85
2022-12-18T12:01:46.474Z,16.42
2022-12-18T12:07:02.809Z,17.58
2022-12-18T12:09:48.165Z,17.98
2022-12-18T12:12:15.970Z,17.58
2022-12-18T12:15:21.719Z,16.98
2022-12-18T12:18:19.583Z,19.98
2022-12-18T12:20:58.338Z,20.33
2022-12-18T12:24:02.865Z,15.30
2022-12-18T12:26:51.480Z,15.45
2022-12-18T12:29:56.145Z,18.75
2022-12-18T12:32:48.873Z,19.10
2022-12-18T12:35:23.861Z,17.05
2022-12-18T12:38:15.071Z,17.85
2022-12-18T12:41:03.265Z,19.30
2022-12-18T12:43:50.599Z,16.98
2022-12-18T12:46:22.905Z,21.20
2022-12-18T12:49:00.270Z,18.63
2022-12-18T12:51:35.633Z,16.17
2022-12-18T12:54:06.655Z,17.83
2022-12-18T12:56:51.381Z,17.58
2022-12-18T13:00:13.161Z,15.93
2022-12-18T13:02:56.235Z,18.90
2022-12-18T13:05:40.883Z,23.00
2022-12-18T13:08:12.863Z,18.42
2022-12-18T13:10:42.883Z,17.35
2022-12-18T13:13:24.276Z,16.08
2022-12-18T13:16:10.467Z,17.50
2022-12-18T13:18:49.225Z,17.55
2022-12-18T13:21:53.741Z,19.63
2022-12-18T13:24:28.325Z,18.77
2022-12-18T13:27:01.702Z,21.20
2022-12-18T13:29:46.822Z,17.60
2022-12-18T13:32:27.107Z,18.60
2022-12-18T13:35:22.677Z,20.02
2022-12-18T13:37:54.726Z,21.05
2022-12-18T13:43:20.428Z,18.42
2022-12-18T13:46:05.594Z,18.48
2022-12-18T13:48:38.080Z,22.70
2022-12-18T13:51:15.556Z,17.13
2022-12-18T13:54:00.412Z,24.75
2022-12-18T13:56:30.792Z,19.77
2022-12-18T13:59:22.830Z,18.15
2022-12-18T14:01:56.493Z,20.25
2022-12-18T14:04:30.795Z,27.52
2022-12-18T14:07:17.620Z,20.40
2022-12-18T14:10:01.962Z,24.10
2022-12-18T14:13:03.285Z,21.67
2022-12-18T14:15:46.078Z,22.60
2022-12-18T14:18:45.469Z,23.95
2022-12-18T14:21:32.965Z,19.42
2022-12-18T14:24:23.005Z,21.48
2022-12-18T14:26:52.541Z,21.98
2022-12-18T14:29:37.105Z,21.92
2022-12-18T14:32:19.031Z,21.00
2022-12-18T14:34:48.200Z,22.17
2022-12-18T14:37:29.088Z,23.83
2022-12-18T14:40:10.829Z,19.05
2022-12-18T14:42:43.996Z,20.77
2022-12-18T14:45:41.051Z,20.70
2022-12-18T14:48:43.445Z,22.67
2022-12-18T14:51:21.672Z,22.20
2022-12-18T14:53:55.371Z,23.60
2022-12-18T14:56:33.027Z,23.30
2022-12-18T14:59:24.758Z,20.60
2022-12-18T15:02:11.901Z,20.48
2022-12-18T15:04:43.326Z,24.73
2022-12-18T15:07:18.737Z,19.88
2022-12-18T15:10:17.986Z,22.63
2022-12-18T15:13:00.807Z,21.67
2022-12-18T15:15:46.005Z,24.70
2022-12-18T15:18:18.918Z,24.15
2022-12-18T15:20:56.836Z,26.55
2022-12-18T15:23:46.146Z,23.83
2022-12-18T15:26:16.896Z,24.63
2022-12-18T15:28:58.468Z,25.48
2022-12-18T15:31:38.588Z,29.85
2022-12-18T15:34:26.715Z,23.42
2022-12-18T15:36:53.573Z,25.70
2022-12-18T15:39:20.461Z,25.75
2022-12-18T15:42:07.184Z,24.48
2022-12-18T15:44:34.619Z,27.15
2022-12-18T15:47:04.585Z,22.77
2022-12-18T15:49:31.797Z,22.80
2022-12-18T15:52:14.027Z,22.98
2022-12-18T15:57:25.991Z,23.77
2022-12-18T15:59:54.201Z,28.15
2022-12-18T16:02:25.940Z,22.20
2022-12-18T16:04:58.275Z,30.15
2022-12-18T16:07:27.348Z,23.13
2022-12-18T16:12:28.867Z,22.90
2022-12-18T16:14:55.565Z,23.25
2022-12-18T16:17:23.165Z,35.22
2022-12-18T16:19:50.060Z,26.00
2022-12-18T16:22:27.277Z,24.70
2022-12-18T16:24:57.614Z,26.23
2022-12-18T16:27:27.856Z,29.02
2022-12-18T16:29:58.131Z,28.58
2022-12-18T16:32:30.153Z,26.33
2022-12-18T16:35:04.893Z,25.73
2022-12-18T16:37:32.475Z,28.42
2022-12-18T16:39:59.297Z,28.05
2022-12-18T16:42:26.551Z,27.42
2022-12-18T16:44:53.368Z,24.65
2022-12-18T16:47:21.638Z,26.17
2022-12-18T16:49:51.851Z,31.75
2022-12-18T16:52:19.349Z,31.92
2022-12-18T16:54:46.480Z,29.00
2022-12-18T16:57:14.696Z,33.80
2022-12-18T16:59:41.498Z,27.02
2022-12-18T17:02:19.165Z,33.00
2022-12-18T17:04:50.815Z,27.33
2022-12-18T17:07:17.592Z,27.30
2022-12-18T17:09:44.967Z,37.63
2022-12-18T17:12:11.962Z,35.20
2022-12-18T17:14:41.525Z,30.50
2022-12-18T17:17:24.251Z,28.58
2022-12-18T17:19:52.646Z,33.30
2022-12-18T17:22:20.558Z,31.20
2022-12-18T17:24:48.062Z,29.25
2022-12-18T17:27:15.443Z,27.35
2022-12-18T17:29:47.244Z,35.03
2022-12-18T17:32:16.223Z,31.60
2022-12-18T17:34:43.075Z,28.10
2022-12-18T17:37:12.341Z,31.63
2022-12-18T17:39:42.769Z,32.60
2022-12-18T17:42:14.986Z,31.83
2022-12-18T17:44:42.778Z,32.25
2022-12-18T17:47:13.149Z,31.85
2022-12-18T17:49:43.054Z,32.92
2022-12-18T17:52:09.998Z,35.75
2022-12-18T17:54:46.453Z,30.90
2022-12-18T17:57:14.917Z,32.67
2022-12-18T17:59:43.209Z,35.90
2022-12-18T18:02:12.085Z,33.80
2022-12-18T18:04:39.246Z,33.10
2022-12-18T18:07:06.213Z,37.30
2022-12-18T18:09:33.188Z,36.00
2022-12-18T18:12:18.390Z,33.08
2022-12-18T18:14:45.182Z,34.45
2022-12-18T18:17:12.001Z,40.78
2022-12-18T18:19:38.651Z,44.90
2022-12-18T18:22:06.566Z,40.67
2022-12-18T18:24:33.578Z,39.47
2022-12-18T18:27:00.312Z,37.35
2022-12-18T18:29:30.465Z,37.72
2022-12-18T18:31:57.596Z,39.08
2022-12-18T18:34:30.485Z,36.70
2022-12-18T18:37:01.942Z,37.08
2022-12-18T18:39:29.159Z,35.15
2022-12-18T18:41:56.304Z,42.63
2022-12-18T18:44:26.079Z,33.58
2022-12-18T18:46:57.502Z,36.72
2022-12-18T18:49:28.185Z,36.50
2022-12-18T18:51:59.271Z,40.53
2022-12-18T18:54:27.975Z,37.92
2022-12-18T18:59:42.809Z,33.90
2022-12-18T19:02:15.588Z,38.85
2022-12-18T19:04:46.668Z,37.53
2022-12-18T19:07:30.420Z,39.38
2022-12-18T19:10:04.761Z,36.60
2022-12-18T19:12:51.129Z,39.58
2022-12-18T19:15:18.086Z,40.30
2022-12-18T19:17:46.060Z,33.92
2022-12-18T19:20:15.313Z,40.38
2022-12-18T19:22:42.259Z,36.70
2022-12-18T19:25:17.532Z,39.45
2022-12-18T19:27:50.200Z,41.90
2022-12-18T19:30:25.825Z,37.38
2022-12-18T19:32:55.366Z,38.75
2022-12-18T19:35:22.037Z,37.55
2022-12-18T19:37:49.537Z,39.05
2022-12-18T19:40:16.547Z,36.00
2022-12-18T19:42:43.201Z,34.72
2022-12-18T19:45:10.303Z,34.03
2022-12-18T19:47:37.218Z,35.88
2022-12-18T19:50:04.403Z,40.38
2022-12-18T19:52:36.053Z,34.72
2022-12-18T19:55:04.022Z,41.20
2022-12-18T19:57:31.974Z,39.40
2022-12-18T20:00:06.689Z,44.03
2022-12-18T20:02:36.560Z,38.33
2022-12-18T20:05:09.829Z,33.92
2022-12-18T20:07:37.684Z,40.00
2022-12-18T20:10:15.483Z,37.78
2022-12-18T20:12:46.711Z,42.05
2022-12-18T20:15:13.456Z,40.22
2022-12-18T20:17:40.388Z,36.40
2022-12-18T20:20:08.231Z,42.47
2022-12-18T20:22:35.408Z,34.75
2022-12-18T20:25:03.403Z,39.08
2022-12-18T20:27:30.207Z,36.13
2022-12-18T20:29:57.178Z,40.47
2022-12-18T20:32:26.266Z,45.10
2022-12-18T20:34:56.190Z,47.33
2022-12-18T20:37:27.649Z,41.05
2022-12-18T20:39:55.262Z,46.30
2022-12-18T20:42:22.183Z,44.50
2022-12-18T20:44:51.717Z,39.50
2022-12-18T20:47:22.059Z,41.83
2022-12-18T20:49:49.053Z,45.20
2022-12-18T20:52:15.962Z,43.22
2022-12-18T20:54:49.016Z,45.25
2022-12-18T20:57:15.787Z,45.10
2022-12-18T20:59:47.969Z,45.92
2022-12-18T21:02:15.787Z,38.45
2022-12-18T21:04:43.015Z,45.33
2022-12-18T21:07:10.864Z,40.25
2022-12-18T21:09:42.314Z,45.15
2022-12-18T21:12:45.229Z,48.13
2022-12-18T21:15:16.646Z,46.45
2022-12-18T21:17:45.197Z,41.85
2022-12-18T21:20:19.196Z,46.38
2022-12-18T21:22:47.380Z,43.72
2022-12-18T21:25:17.228Z,47.40
2022-12-18T21:27:46.688Z,45.33
2022-12-18T21:30:15.271Z,48.03
2022-12-18T21:32:42.316Z,47.60
2022-12-18T21:35:09.801Z,50.53
2022-12-18T21:37:37.245Z,56.67
2022-12-18T21:40:11.488Z,50.72
2022-12-18T21:42:56.940Z,50.92
2022-12-18T21:45:24.485Z,52.05
2022-12-18T21:47:51.448Z,46.08
2022-12-18T21:50:21.351Z,44.45
2022-12-18T21:52:51.269Z,45.05
2022-12-18T21:55:54.768Z,39.25
2022-12-18T21:58:24.380Z,41.20
2022-12-18T22:00:53.604Z,42.25
2022-12-18T22:03:20.547Z,49.80
2022-12-18T22:05:50.591Z,39.17
2022-12-18T22:08:29.256Z,47.80
2022-12-18T22:10:58.561Z,43.22
2022-12-18T22:13:27.809Z,44.67
2022-12-18T22:15:58.769Z,41.58
2022-12-18T22:18:30.785Z,42.70
2022-12-18T22:21:04.624Z,45.70
2022-12-18T22:23:34.595Z,48.17
2022-12-18T22:26:04.660Z,43.67
2022-12-18T22:28:50.095Z,48.95
2022-12-18T22:31:22.941Z,46.42
2022-12-18T22:33:49.799Z,50.53
2022-12-18T22:36:16.581Z,47.47
2022-12-18T22:38:49.361Z,58.55
2022-12-18T22:41:45.396Z,67.82
2022-12-18T22:44:15.044Z,61.03
2022-12-18T22:47:00.618Z,61.53
2022-12-18T22:49:38.718Z,61.15
2022-12-18T22:52:09.535Z,56.63
2022-12-18T22:54:36.640Z,68.97
2022-12-18T22:57:05.517Z,65.20
2022-12-18T22:59:43.967Z,76.50
2022-12-18T23:02:13.609Z,80.82
2022-12-18T23:04:44.797Z,72.28
2022-12-18T23:09:39.631Z,72.13
2022-12-18T23:12:35.146Z,80.82
2022-12-18T23:15:05.614Z,78.13
2022-12-18T23:17:38.755Z,78.00
2022-12-18T23:20:07.031Z,89.03
2022-12-18T23:22:36.337Z,88.75
2022-12-18T23:25:15.374Z,92.60
2022-12-18T23:27:42.200Z,77.93
2022-12-18T23:30:10.273Z,87.85
2022-12-18T23:32:40.187Z,92.22
2022-12-18T23:35:07.545Z,86.00
2022-12-18T23:37:58.616Z,82.68
2022-12-18T23:40:25.914Z,90.43
2022-12-18T23:42:52.582Z,77.20
2022-12-18T23:45:20.458Z,90.30
2022-12-18T23:47:53.697Z,85.85
2022-12-18T23:50:23.779Z,83.82
2022-12-18T23:53:05.372Z,87.25
2022-12-18T23:55:33.777Z,85.88
2022-12-18T23:58:01.006Z,85.38
